createdAt,value
2023-02-16T00:00:45.012Z,78.84
2023-02-16T00:03:13.869Z,79.34
2023-02-16T00:05:40.789Z,80.51
2023-02-16T00:08:07.616Z,78.54
2023-02-16T00:10:36.282Z,79.24
2023-02-16T00:13:21.636Z,78.62
2023-02-16T00:15:48.640Z,78.36
2023-02-16T00:18:18.494Z,79.39
2023-02-16T00:20:45.508Z,77.38
2023-02-16T00:23:12.247Z,77.36
2023-02-16T00:25:39.228Z,77.99
2023-02-16T00:28:19.559Z,79.33
2023-02-16T00:30:46.967Z,79.44
2023-02-16T00:33:15.654Z,81.49
2023-02-16T00:35:43.006Z,78.17
2023-02-16T00:38:09.768Z,77.14
2023-02-16T00:40:36.730Z,79.11
2023-02-16T00:43:03.958Z,79.83
2023-02-16T00:45:36.209Z,79.69
2023-02-16T00:48:03.462Z,79.58
2023-02-16T00:50:32.107Z,79.33
2023-02-16T00:52:59.270Z,80.15
2023-02-16T00:55:29.208Z,80.18
2023-02-16T00:58:06.918Z,79.73
2023-02-16T01:00:37.762Z,80.59
2023-02-16T01:03:08.699Z,79.99
2023-02-16T01:05:35.627Z,80.05
2023-02-16T01:08:02.957Z,79.08
2023-02-16T01:10:30.442Z,77.51
2023-02-16T01:12:57.266Z,79.41
2023-02-16T01:15:25.943Z,80.39
2023-02-16T01:17:54.136Z,79.95
2023-02-16T01:20:23.028Z,81.24
2023-02-16T01:22:49.783Z,79.84
2023-02-16T01:25:17.231Z,79.63
2023-02-16T01:27:44.811Z,80.50
2023-02-16T01:30:17.234Z,79.41
2023-02-16T01:32:44.201Z,80.81
2023-02-16T01:35:14.473Z,80.36
2023-02-16T01:37:41.282Z,81.40
2023-02-16T01:40:19.369Z,79.48
2023-02-16T01:42:51.283Z,78.36
2023-02-16T01:45:24.670Z,76.70
2023-02-16T01:47:54.349Z,78.91
2023-02-16T01:50:25.157Z,78.21
2023-02-16T01:52:56.746Z,78.36
2023-02-16T01:55:27.276Z,78.93
2023-02-16T01:57:59.714Z,80.90
2023-02-16T02:00:29.482Z,82.80
2023-02-16T02:02:59.400Z,83.90
2023-02-16T02:05:29.548Z,80.33
2023-02-16T02:08:01.341Z,78.15
2023-02-16T02:10:37.433Z,77.98
2023-02-16T02:13:09.238Z,80.72
2023-02-16T02:15:36.112Z,79.31
2023-02-16T02:18:03.746Z,79.00
2023-02-16T02:20:46.123Z,78.18
2023-02-16T02:23:28.997Z,77.20
2023-02-16T02:26:43.854Z,74.01
2023-02-16T02:29:32.605Z,74.65
2023-02-16T02:32:06.188Z,75.41
2023-02-16T02:34:46.031Z,76.70
2023-02-16T02:37:21.115Z,74.19
2023-02-16T02:39:57.100Z,77.65
2023-02-16T02:42:31.683Z,78.42
2023-02-16T02:45:04.504Z,79.02
2023-02-16T02:47:38.345Z,78.01
2023-02-16T02:50:31.857Z,74.94
2023-02-16T02:53:03.414Z,72.73
2023-02-16T02:55:33.133Z,74.17
2023-02-16T02:58:00.595Z,75.86
2023-02-16T03:00:32.570Z,76.34
2023-02-16T03:03:05.478Z,72.17
2023-02-16T03:05:34.535Z,75.46
2023-02-16T03:08:05.090Z,75.62
2023-02-16T03:10:35.445Z,76.41
2023-02-16T03:13:03.872Z,74.33
2023-02-16T03:15:33.457Z,77.36
2023-02-16T03:18:03.088Z,76.12
2023-02-16T03:20:29.809Z,74.98
2023-02-16T03:22:58.361Z,73.33
2023-02-16T03:25:29.655Z,73.24
2023-02-16T03:27:58.275Z,75.33
2023-02-16T03:30:27.025Z,75.48
2023-02-16T03:32:55.431Z,75.77
2023-02-16T03:35:22.439Z,74.96
2023-02-16T03:37:49.452Z,77.47
2023-02-16T03:40:17.637Z,76.47
2023-02-16T03:42:49.246Z,75.09
2023-02-16T03:45:16.320Z,74.32
2023-02-16T03:47:43.022Z,76.76
2023-02-16T03:50:11.319Z,77.81
2023-02-16T03:52:38.241Z,80.08
2023-02-16T03:55:05.704Z,79.72
2023-02-16T03:57:32.507Z,75.54
2023-02-16T03:59:59.494Z,76.24
2023-02-16T04:02:28.967Z,74.53
2023-02-16T04:04:55.798Z,77.49
2023-02-16T04:07:23.948Z,78.01
2023-02-16T04:09:50.869Z,76.46
2023-02-16T04:12:17.671Z,75.06
2023-02-16T04:14:44.469Z,70.37
2023-02-16T04:17:11.309Z,69.81
2023-02-16T04:19:38.028Z,69.46
2023-02-16T04:22:04.982Z,72.10
2023-02-16T04:24:33.105Z,71.70
2023-02-16T04:26:59.854Z,69.97
2023-02-16T04:29:26.892Z,71.05
2023-02-16T04:31:53.778Z,71.57
2023-02-16T04:34:20.659Z,73.13
2023-02-16T04:36:47.513Z,72.66
2023-02-16T04:39:14.237Z,73.56
2023-02-16T04:41:42.448Z,76.19
2023-02-16T04:44:09.287Z,76.81
2023-02-16T04:46:36.034Z,77.93
2023-02-16T04:49:02.772Z,77.45
2023-02-16T04:51:29.513Z,77.48
2023-02-16T04:53:56.342Z,74.24
2023-02-16T04:56:23.171Z,74.17
2023-02-16T04:58:51.327Z,76.06
2023-02-16T05:01:19.586Z,76.90
2023-02-16T05:03:46.610Z,78.61
2023-02-16T05:06:13.544Z,80.07
2023-02-16T05:08:40.567Z,77.19
2023-02-16T05:11:07.329Z,78.00
2023-02-16T05:13:34.529Z,77.99
2023-02-16T05:16:02.807Z,77.78
2023-02-16T05:18:29.558Z,77.41
2023-02-16T05:20:56.390Z,74.89
2023-02-16T05:23:23.156Z,74.95
2023-02-16T05:25:49.860Z,76.97
2023-02-16T05:28:16.666Z,77.86
2023-02-16T05:30:43.535Z,79.53
2023-02-16T05:33:11.657Z,77.74
2023-02-16T05:35:38.386Z,76.77
2023-02-16T05:38:05.242Z,78.59
2023-02-16T05:40:32.116Z,78.62
2023-02-16T05:42:59.152Z,77.57
2023-02-16T05:45:25.995Z,79.58
2023-02-16T05:47:52.885Z,79.56
2023-02-16T05:50:21.292Z,78.27
2023-02-16T05:52:48.307Z,77.67
2023-02-16T05:55:15.238Z,78.80
2023-02-16T05:57:41.967Z,78.65
2023-02-16T06:00:10.084Z,78.51
2023-02-16T06:02:37.305Z,78.18
2023-02-16T06:05:04.333Z,76.88
2023-02-16T06:07:32.497Z,78.92
2023-02-16T06:09:59.300Z,77.89
2023-02-16T06:12:26.035Z,77.65
2023-02-16T06:14:52.795Z,78.97
2023-02-16T06:17:19.531Z,75.81
2023-02-16T06:19:46.362Z,78.98
2023-02-16T06:22:13.204Z,79.41
2023-02-16T06:24:41.326Z,77.11
2023-02-16T06:27:08.177Z,78.61
2023-02-16T06:29:34.935Z,77.04
2023-02-16T06:32:01.811Z,79.23
2023-02-16T06:34:28.708Z,79.02
2023-02-16T06:36:56.588Z,80.71
2023-02-16T06:39:23.504Z,81.70
2023-02-16T06:41:51.601Z,80.61
2023-02-16T06:44:18.447Z,81.23
2023-02-16T06:46:46.900Z,77.16
2023-02-16T06:49:15.665Z,72.63
2023-02-16T06:51:42.815Z,77.70
2023-02-16T06:54:10.032Z,74.19
2023-02-16T06:56:38.056Z,74.19
2023-02-16T06:59:07.834Z,71.90
2023-02-16T07:01:34.737Z,73.22
2023-02-16T07:04:01.549Z,74.90
2023-02-16T07:06:30.483Z,75.49
2023-02-16T07:08:59.018Z,77.34
2023-02-16T07:11:28.326Z,79.23
2023-02-16T07:13:55.320Z,80.64
2023-02-16T07:16:23.814Z,79.97
2023-02-16T07:18:51.569Z,80.34
2023-02-16T07:21:19.181Z,81.13
2023-02-16T07:23:46.532Z,76.05
2023-02-16T07:26:13.696Z,79.71
2023-02-16T07:28:40.518Z,79.26
2023-02-16T07:31:09.018Z,80.41
2023-02-16T07:33:40.476Z,81.33
2023-02-16T07:36:08.757Z,81.63
2023-02-16T07:38:35.978Z,80.38
2023-02-16T07:41:04.254Z,78.49
2023-02-16T07:43:32.422Z,78.40
2023-02-16T07:45:59.294Z,78.45
2023-02-16T07:48:26.166Z,76.95
2023-02-16T07:50:54.410Z,79.17
2023-02-16T07:53:21.674Z,73.72
2023-02-16T07:55:48.553Z,71.13
2023-02-16T07:58:15.564Z,67.49
2023-02-16T08:00:42.320Z,65.02
2023-02-16T08:03:09.679Z,66.56
2023-02-16T08:05:36.667Z,67.55
2023-02-16T08:08:04.952Z,68.46
2023-02-16T08:10:31.891Z,66.98
2023-02-16T08:12:58.927Z,64.63
2023-02-16T08:15:25.704Z,62.57
2023-02-16T08:17:53.144Z,59.40
2023-02-16T08:20:20.332Z,58.39
2023-02-16T08:22:48.068Z,56.87
2023-02-16T08:25:16.607Z,56.67
2023-02-16T08:27:43.524Z,56.86
2023-02-16T08:30:11.615Z,55.58
2023-02-16T08:32:38.781Z,54.75
2023-02-16T08:35:06.667Z,55.17
2023-02-16T08:37:33.551Z,52.96
2023-02-16T08:40:00.451Z,53.56
2023-02-16T08:42:28.751Z,52.80
2023-02-16T08:44:55.728Z,51.68
2023-02-16T08:47:22.635Z,52.45
2023-02-16T08:49:49.696Z,51.93
2023-02-16T08:52:16.574Z,51.33
2023-02-16T08:54:43.406Z,52.06
2023-02-16T08:57:10.231Z,51.68
2023-02-16T08:59:38.386Z,51.21
2023-02-16T09:02:06.061Z,50.95
2023-02-16T09:04:32.957Z,50.56
2023-02-16T09:07:00.150Z,50.52
2023-02-16T09:09:27.195Z,48.43
2023-02-16T09:11:54.307Z,47.60
2023-02-16T09:14:21.909Z,48.15
2023-02-16T09:16:50.233Z,48.71
2023-02-16T09:19:19.335Z,47.73
2023-02-16T09:21:46.832Z,48.83
2023-02-16T09:24:13.674Z,49.23
2023-02-16T09:26:40.569Z,48.02
2023-02-16T09:29:07.345Z,47.75
2023-02-16T09:31:35.995Z,47.50
2023-02-16T09:34:06.486Z,47.47
2023-02-16T09:36:34.238Z,47.58
2023-02-16T09:39:01.204Z,46.48
2023-02-16T09:41:32.684Z,46.43
2023-02-16T09:44:03.273Z,46.01
2023-02-16T09:46:31.921Z,46.11
2023-02-16T09:49:01.720Z,46.59
2023-02-16T09:51:35.919Z,46.30
2023-02-16T09:54:10.946Z,46.85
2023-02-16T09:56:40.115Z,46.28
2023-02-16T09:59:13.978Z,46.18
2023-02-16T10:01:47.916Z,47.51
2023-02-16T10:04:28.561Z,46.98
2023-02-16T10:07:09.732Z,47.44
2023-02-16T10:09:38.057Z,48.28
2023-02-16T10:12:10.347Z,48.48
2023-02-16T10:14:42.283Z,48.40
2023-02-16T10:17:19.045Z,48.17
2023-02-16T10:19:52.232Z,49.00
2023-02-16T10:22:29.874Z,49.17
2023-02-16T10:25:02.170Z,49.02
2023-02-16T10:27:36.857Z,48.39
2023-02-16T10:30:12.774Z,47.57
2023-02-16T10:32:53.725Z,47.22
2023-02-16T10:35:30.928Z,47.84
2023-02-16T10:38:04.695Z,47.13
2023-02-16T10:40:41.225Z,46.71
2023-02-16T10:43:17.150Z,46.52
2023-02-16T10:45:52.330Z,46.38
2023-02-16T10:48:20.646Z,46.62
2023-02-16T10:50:56.675Z,47.04
2023-02-16T10:53:36.705Z,45.85
2023-02-16T10:56:35.756Z,46.27
2023-02-16T10:59:06.780Z,45.42
2023-02-16T11:01:38.037Z,45.42
2023-02-16T11:04:05.616Z,45.74
2023-02-16T11:06:32.426Z,45.72
2023-02-16T11:09:02.283Z,45.77
2023-02-16T11:11:34.966Z,46.00
2023-02-16T11:14:04.100Z,46.32
2023-02-16T11:16:31.542Z,46.13
2023-02-16T11:19:00.517Z,45.94
2023-02-16T11:21:45.901Z,44.42
2023-02-16T11:24:25.973Z,44.74
2023-02-16T11:27:03.850Z,44.24
2023-02-16T11:29:31.103Z,44.33
2023-02-16T11:31:59.482Z,43.73
2023-02-16T11:34:31.657Z,43.52
2023-02-16T11:37:05.176Z,43.42
2023-02-16T11:39:37.506Z,42.82
2023-02-16T11:42:08.434Z,42.94
2023-02-16T11:44:37.841Z,42.98
2023-02-16T11:47:08.512Z,42.86
2023-02-16T11:49:38.502Z,42.37
2023-02-16T11:52:27.324Z,43.34
2023-02-16T11:54:57.248Z,42.20
2023-02-16T11:57:26.431Z,42.53
2023-02-16T11:59:53.889Z,42.28
2023-02-16T12:03:04.779Z,42.56
2023-02-16T12:05:43.451Z,42.23
2023-02-16T12:08:28.118Z,42.05
2023-02-16T12:11:10.019Z,42.45
2023-02-16T12:13:42.327Z,41.83
2023-02-16T12:16:21.658Z,42.71
2023-02-16T12:19:03.801Z,42.23
2023-02-16T12:21:41.568Z,42.69
2023-02-16T12:24:21.070Z,42.01
2023-02-16T12:26:52.041Z,41.41
2023-02-16T12:29:39.026Z,41.81
2023-02-16T12:32:25.014Z,41.28
2023-02-16T12:35:08.218Z,40.56
2023-02-16T12:37:44.606Z,40.79
2023-02-16T12:40:22.206Z,40.85
2023-02-16T12:43:02.360Z,40.61
2023-02-16T12:45:32.907Z,41.02
2023-02-16T12:48:06.454Z,41.22
2023-02-16T12:50:36.259Z,40.97
2023-02-16T12:53:08.144Z,41.27
2023-02-16T12:55:39.699Z,41.43
2023-02-16T12:58:18.811Z,41.13
2023-02-16T13:00:47.328Z,40.40
2023-02-16T13:03:34.887Z,40.04
2023-02-16T13:06:20.231Z,39.97
2023-02-16T13:08:55.874Z,40.46
2023-02-16T13:11:28.418Z,40.24
2023-02-16T13:14:01.986Z,40.12
2023-02-16T13:16:42.457Z,39.33
2023-02-16T13:19:12.446Z,39.57
2023-02-16T13:22:04.719Z,40.83
2023-02-16T13:24:45.433Z,40.72
2023-02-16T13:27:22.486Z,40.32
2023-02-16T13:30:06.687Z,40.32
2023-02-16T13:32:51.336Z,40.66
2023-02-16T13:35:51.369Z,40.77
2023-02-16T13:38:46.909Z,40.04
2023-02-16T13:41:44.871Z,40.75
2023-02-16T13:44:16.693Z,40.68
2023-02-16T13:46:48.372Z,41.02
2023-02-16T13:49:32.440Z,41.86
2023-02-16T13:52:00.142Z,42.01
2023-02-16T13:54:30.829Z,42.17
2023-02-16T13:56:57.658Z,42.35
2023-02-16T13:59:59.371Z,43.46
2023-02-16T14:02:53.182Z,43.85
2023-02-16T14:05:25.686Z,44.00
2023-02-16T14:08:10.265Z,43.68
2023-02-16T14:10:59.971Z,43.51
2023-02-16T14:13:30.751Z,43.64
2023-02-16T14:16:03.873Z,44.12
2023-02-16T14:18:36.381Z,44.68
2023-02-16T14:21:05.546Z,44.67
2023-02-16T14:23:35.075Z,45.14
2023-02-16T14:26:03.720Z,45.62
2023-02-16T14:28:58.770Z,46.09
2023-02-16T14:31:27.272Z,46.73
2023-02-16T14:34:03.235Z,47.33
2023-02-16T14:36:30.254Z,47.96
2023-02-16T14:38:59.186Z,48.13
2023-02-16T14:41:29.399Z,49.78
2023-02-16T14:44:27.789Z,50.15
2023-02-16T14:47:07.214Z,49.62
2023-02-16T14:50:00.136Z,49.19
2023-02-16T14:52:58.661Z,48.54
2023-02-16T14:55:59.102Z,49.92
2023-02-16T14:58:31.691Z,49.38
2023-02-16T15:01:05.913Z,49.53
2023-02-16T15:03:40.921Z,49.22
2023-02-16T15:06:15.255Z,48.89
2023-02-16T15:08:44.766Z,48.74
2023-02-16T15:11:19.766Z,49.05
2023-02-16T15:13:47.159Z,49.37
2023-02-16T15:16:16.903Z,49.60
2023-02-16T15:18:46.735Z,50.12
2023-02-16T15:21:21.118Z,50.22
2023-02-16T15:23:50.476Z,52.07
2023-02-16T15:26:19.691Z,52.27
2023-02-16T15:28:53.009Z,53.00
2023-02-16T15:31:23.642Z,52.54
2023-02-16T15:33:55.161Z,52.42
2023-02-16T15:36:31.387Z,52.81
2023-02-16T15:39:00.642Z,53.42
2023-02-16T15:41:31.728Z,53.04
2023-02-16T15:43:59.724Z,53.20
2023-02-16T15:46:30.179Z,54.04
2023-02-16T15:48:57.716Z,54.44
2023-02-16T15:51:29.822Z,55.90
2023-02-16T15:54:00.289Z,58.38
2023-02-16T15:56:44.419Z,58.70
2023-02-16T15:59:35.480Z,59.51
2023-02-16T16:02:11.650Z,59.45
2023-02-16T16:04:43.011Z,60.27
2023-02-16T16:07:15.558Z,59.85
2023-02-16T16:09:43.644Z,60.03
2023-02-16T16:12:13.492Z,61.12
2023-02-16T16:14:44.724Z,62.99
2023-02-16T16:17:16.865Z,62.96
2023-02-16T16:19:43.902Z,64.04
2023-02-16T16:22:31.831Z,64.72
2023-02-16T16:25:00.842Z,64.60
2023-02-16T16:27:30.276Z,65.61
2023-02-16T16:30:24.650Z,67.51
2023-02-16T16:33:02.637Z,66.71
2023-02-16T16:35:38.779Z,66.03
2023-02-16T16:38:23.819Z,67.39
2023-02-16T16:40:52.933Z,69.34
2023-02-16T16:43:22.488Z,69.48
2023-02-16T16:45:56.411Z,69.93
2023-02-16T16:48:28.934Z,70.50
2023-02-16T16:51:11.220Z,70.30
2023-02-16T16:53:50.415Z,69.87
2023-02-16T16:56:17.708Z,71.08
2023-02-16T16:58:48.403Z,70.78
2023-02-16T17:01:15.383Z,72.52
2023-02-16T17:03:42.452Z,74.36
2023-02-16T17:06:09.606Z,73.69
2023-02-16T17:08:36.380Z,73.16
2023-02-16T17:11:05.003Z,72.58
2023-02-16T17:13:31.890Z,74.51
2023-02-16T17:16:02.547Z,74.81
2023-02-16T17:18:29.769Z,72.51
2023-02-16T17:20:56.805Z,73.70
2023-02-16T17:23:23.960Z,73.57
2023-02-16T17:25:50.893Z,74.23
2023-02-16T17:28:20.411Z,72.90
2023-02-16T17:30:47.214Z,74.01
2023-02-16T17:33:14.249Z,73.00
2023-02-16T17:35:43.148Z,72.58
2023-02-16T17:38:12.079Z,72.18
2023-02-16T17:40:39.073Z,73.00
2023-02-16T17:43:11.647Z,74.36
2023-02-16T17:45:40.413Z,74.92
2023-02-16T17:48:07.715Z,75.67
2023-02-16T17:50:34.605Z,73.70
2023-02-16T17:53:01.493Z,71.46
2023-02-16T17:55:28.453Z,73.08
2023-02-16T17:57:55.246Z,69.04
2023-02-16T18:00:22.300Z,68.79
2023-02-16T18:02:50.530Z,70.07
2023-02-16T18:05:17.516Z,68.93
2023-02-16T18:07:44.359Z,69.78
2023-02-16T18:10:16.975Z,70.33
2023-02-16T18:12:43.751Z,71.26
2023-02-16T18:15:10.622Z,70.10
2023-02-16T18:17:37.447Z,70.46
2023-02-16T18:20:07.428Z,70.80
2023-02-16T18:22:34.230Z,71.35
2023-02-16T18:25:01.280Z,72.58
2023-02-16T18:27:30.504Z,73.46
2023-02-16T18:29:57.664Z,75.58
2023-02-16T18:32:24.568Z,73.90
2023-02-16T18:34:54.223Z,75.31
2023-02-16T18:37:22.480Z,76.62
2023-02-16T18:39:49.352Z,76.38
2023-02-16T18:42:16.694Z,76.03
2023-02-16T18:44:43.628Z,75.42
2023-02-16T18:47:10.670Z,76.31
2023-02-16T18:49:37.616Z,74.69
2023-02-16T18:52:04.490Z,75.11
2023-02-16T18:54:32.759Z,73.60
2023-02-16T18:56:59.691Z,73.38
2023-02-16T18:59:26.771Z,74.52
2023-02-16T19:01:55.826Z,73.66
2023-02-16T19:04:23.243Z,74.49
2023-02-16T19:06:50.087Z,74.35
2023-02-16T19:09:17.208Z,73.54
2023-02-16T19:11:45.416Z,73.44
2023-02-16T19:14:12.708Z,74.46
2023-02-16T19:16:39.723Z,75.77
2023-02-16T19:19:06.784Z,76.55
2023-02-16T19:21:33.748Z,76.79
2023-02-16T19:24:00.551Z,77.63
2023-02-16T19:26:27.515Z,77.12
2023-02-16T19:28:56.011Z,78.29
2023-02-16T19:31:24.884Z,77.84
2023-02-16T19:33:52.254Z,80.50
2023-02-16T19:36:19.648Z,77.85
2023-02-16T19:38:47.208Z,74.52
2023-02-16T19:41:16.381Z,75.58
2023-02-16T19:43:43.641Z,76.34
2023-02-16T19:46:13.675Z,76.23
2023-02-16T19:48:40.574Z,77.21
2023-02-16T19:51:09.102Z,76.71
2023-02-16T19:53:37.901Z,76.61
2023-02-16T19:56:06.190Z,75.74
2023-02-16T19:58:33.264Z,77.78
2023-02-16T20:01:06.402Z,79.50
2023-02-16T20:03:34.580Z,78.59
2023-02-16T20:06:11.278Z,78.34
2023-02-16T20:08:38.138Z,79.84
2023-02-16T20:11:05.242Z,78.35
2023-02-16T20:13:31.994Z,76.90
2023-02-16T20:16:01.136Z,75.36
2023-02-16T20:18:27.944Z,72.54
2023-02-16T20:20:59.650Z,74.08
2023-02-16T20:23:26.860Z,74.65
2023-02-16T20:25:53.989Z,76.02
2023-02-16T20:28:21.040Z,77.12
2023-02-16T20:30:48.462Z,77.21
2023-02-16T20:33:15.554Z,78.08
2023-02-16T20:35:42.460Z,78.63
2023-02-16T20:38:10.644Z,76.62
2023-02-16T20:40:37.442Z,77.18
2023-02-16T20:43:04.281Z,76.66
2023-02-16T20:45:31.164Z,76.74
2023-02-16T20:47:57.941Z,76.17
2023-02-16T20:50:24.765Z,76.15
2023-02-16T20:52:51.625Z,75.83
2023-02-16T20:55:19.899Z,77.15
2023-02-16T20:57:46.738Z,78.37
2023-02-16T21:00:19.638Z,78.63
2023-02-16T21:02:46.456Z,79.62
2023-02-16T21:05:13.542Z,80.50
2023-02-16T21:07:40.383Z,79.23
2023-02-16T21:10:09.375Z,79.72
2023-02-16T21:12:37.572Z,78.03
2023-02-16T21:15:05.826Z,78.16
2023-02-16T21:17:32.791Z,79.33
2023-02-16T21:19:59.621Z,79.74
2023-02-16T21:22:26.424Z,75.82
2023-02-16T21:24:53.245Z,77.53
2023-02-16T21:27:19.975Z,77.82
2023-02-16T21:29:48.766Z,78.50
2023-02-16T21:32:15.709Z,80.05
2023-02-16T21:34:42.572Z,79.86
2023-02-16T21:37:09.422Z,79.36
2023-02-16T21:39:36.302Z,79.34
2023-02-16T21:42:03.039Z,79.67
2023-02-16T21:44:29.751Z,78.93
2023-02-16T21:46:57.945Z,78.61
2023-02-16T21:49:24.713Z,77.60
2023-02-16T21:51:51.427Z,78.18
2023-02-16T21:54:19.189Z,76.23
2023-02-16T21:56:49.607Z,76.88
2023-02-16T21:59:18.684Z,79.35
2023-02-16T22:01:47.125Z,79.46
2023-02-16T22:04:18.425Z,78.55
2023-02-16T22:06:46.718Z,80.58
2023-02-16T22:09:16.040Z,81.01
2023-02-16T22:11:43.521Z,80.81
2023-02-16T22:14:10.260Z,78.75
2023-02-16T22:16:38.988Z,79.71
2023-02-16T22:19:07.755Z,80.88
2023-02-16T22:21:37.694Z,80.07
2023-02-16T22:24:05.610Z,81.24
2023-02-16T22:26:35.576Z,79.56
2023-02-16T22:29:03.202Z,78.60
2023-02-16T22:31:30.323Z,75.83
2023-02-16T22:33:58.201Z,77.99
2023-02-16T22:36:25.345Z,78.32
2023-02-16T22:38:54.344Z,81.12
2023-02-16T22:41:21.747Z,81.53
2023-02-16T22:43:52.187Z,82.84
2023-02-16T22:46:19.047Z,82.00
2023-02-16T22:48:45.839Z,81.66
2023-02-16T22:51:14.184Z,80.75
2023-02-16T22:53:41.323Z,81.74
2023-02-16T22:56:12.700Z,81.78
2023-02-16T22:58:40.536Z,81.72
2023-02-16T23:01:11.535Z,81.84
2023-02-16T23:03:38.316Z,80.06
2023-02-16T23:06:11.945Z,79.30
2023-02-16T23:08:38.711Z,80.21
2023-02-16T23:11:05.755Z,80.53
2023-02-16T23:13:34.741Z,82.17
2023-02-16T23:16:04.342Z,82.79
2023-02-16T23:18:31.844Z,84.23
2023-02-16T23:21:04.977Z,84.19
2023-02-16T23:23:31.785Z,81.86
2023-02-16T23:25:58.602Z,80.34
2023-02-16T23:28:25.374Z,80.45
2023-02-16T23:30:57.157Z,83.78
2023-02-16T23:33:24.260Z,82.69
2023-02-16T23:35:51.112Z,80.42
2023-02-16T23:38:17.889Z,82.52
2023-02-16T23:40:44.680Z,82.53
2023-02-16T23:43:11.525Z,81.88
2023-02-16T23:45:38.896Z,80.81
2023-02-16T23:48:07.164Z,79.90
2023-02-16T23:50:33.921Z,81.00
2023-02-16T23:53:00.728Z,78.97
2023-02-16T23:55:27.712Z,78.11
2023-02-16T23:57:54.442Z,77.57
